Time;durP1;ratioP1;P1;durP2;ratioP2;P2;SDS_P1;SDS_P2;PMS_P1;PMS_P2;Temp;Humidity;BMP_temperature;BMP_pressure;BME280_temperature;BME280_humidity;BME280_pressure;Samples;Min_cycle;Max_cycle;Signal;HPM_P1;HPM_P2
2023/05/19 00:00:57;;;;;;;6.60;4.63;;;12.20;99.90;;;;;;5040206;28;20424;-73
2023/05/19 00:03:24;;;;;;;5.40;4.23;;;12.20;99.90;;;;;;5047551;28;20472;-73
2023/05/19 00:05:52;;;;;;;6.00;4.03;;;12.20;99.90;;;;;;5051561;28;20485;-73
2023/05/19 00:08:19;;;;;;;8.27;4.40;;;12.20;99.90;;;;;;5050706;28;20426;-73
2023/05/19 00:10:45;;;;;;;5.27;3.90;;;12.10;99.90;;;;;;5049950;28;20416;-73
2023/05/19 00:13:11;;;;;;;5.57;4.73;;;12.10;99.90;;;;;;5031335;28;20450;-73
2023/05/19 00:15:37;;;;;;;7.47;4.20;;;12.10;99.90;;;;;;5031729;28;20413;-73
2023/05/19 00:18:02;;;;;;;11.10;4.63;;;12.10;99.90;;;;;;5031327;28;20770;-73
2023/05/19 00:20:28;;;;;;;5.53;3.97;;;12.00;99.90;;;;;;5031476;28;20449;-73
2023/05/19 00:22:54;;;;;;;5.23;4.50;;;12.00;99.90;;;;;;5031454;28;20202;-73
2023/05/19 00:25:20;;;;;;;5.13;4.37;;;12.00;99.90;;;;;;5043230;28;20669;-73
2023/05/19 00:27:45;;;;;;;6.97;4.70;;;12.00;99.90;;;;;;5051130;28;20178;-73
2023/05/19 00:30:11;;;;;;;6.83;4.40;;;11.90;99.90;;;;;;5051256;28;20205;-73
2023/05/19 00:32:37;;;;;;;6.40;4.77;;;11.90;99.90;;;;;;5051369;28;20201;-73
2023/05/19 00:35:03;;;;;;;7.10;4.50;;;11.80;99.90;;;;;;5051288;28;20481;-73
2023/05/19 00:37:28;;;;;;;9.00;4.30;;;11.80;99.90;;;;;;5049593;28;20874;-73
2023/05/19 00:39:54;;;;;;;8.73;4.53;;;11.70;99.90;;;;;;5050756;28;20186;-73
2023/05/19 00:42:20;;;;;;;6.10;4.63;;;11.70;99.90;;;;;;5051128;28;20178;-73
2023/05/19 00:44:46;;;;;;;6.27;3.97;;;11.70;99.90;;;;;;5049726;28;20704;-73
2023/05/19 00:47:11;;;;;;;6.30;4.43;;;11.70;99.90;;;;;;5050848;28;20178;-73
2023/05/19 00:49:37;;;;;;;7.17;4.80;;;11.70;99.90;;;;;;5051106;28;20284;-73
2023/05/19 00:52:05;;;;;;;7.20;5.03;;;11.70;99.90;;;;;;5051013;28;20181;-73
2023/05/19 00:54:32;;;;;;;7.20;4.73;;;11.60;99.90;;;;;;5050651;28;20236;-73
2023/05/19 00:56:59;;;;;;;6.60;5.57;;;11.70;99.90;;;;;;5050658;28;20518;-73
2023/05/19 00:59:25;;;;;;;5.80;4.63;;;11.60;99.90;;;;;;5050413;28;20421;-73
2023/05/19 01:01:51;;;;;;;6.90;5.33;;;11.60;99.90;;;;;;5050699;28;20482;-73
2023/05/19 01:04:20;;;;;;;6.90;5.30;;;11.60;99.90;;;;;;5050207;28;20466;-73
2023/05/19 01:06:48;;;;;;;11.50;5.07;;;11.60;99.90;;;;;;5050294;28;20423;-73
2023/05/19 01:09:15;;;;;;;7.87;5.50;;;11.50;99.90;;;;;;5050514;28;20764;-73
2023/05/19 01:11:41;;;;;;;10.33;5.63;;;11.50;99.90;;;;;;5050754;28;20491;-73
2023/05/19 01:14:07;;;;;;;7.17;5.20;;;11.50;99.90;;;;;;5050161;28;20872;-73
2023/05/19 01:16:41;;;;;;;10.20;5.33;;;11.50;99.90;;;;;;5049520;28;20196;-73
2023/05/19 01:19:39;;;;;;;11.53;5.03;;;11.50;99.90;;;;;;5049973;28;20427;-73
2023/05/19 01:22:22;;;;;;;7.20;4.97;;;11.40;99.90;;;;;;5050326;28;20424;-73
2023/05/19 01:25:26;;;;;;;5.80;5.20;;;11.40;99.90;;;;;;5050009;28;20470;-73
2023/05/19 01:28:16;;;;;;;5.97;5.27;;;11.40;99.90;;;;;;5049741;28;20404;-73
2023/05/19 01:30:44;;;;;;;10.07;6.50;;;11.40;99.90;;;;;;5050059;28;20432;-73
2023/05/19 01:33:15;;;;;;;10.07;5.87;;;11.30;99.90;;;;;;5049646;28;20435;-73
2023/05/19 01:35:42;;;;;;;9.90;5.77;;;11.30;99.90;;;;;;5050125;28;20466;-73
2023/05/19 01:38:09;;;;;;;9.13;7.10;;;11.30;99.90;;;;;;5049556;28;20409;-73
2023/05/19 01:40:37;;;;;;;8.13;6.17;;;11.20;99.90;;;;;;5049134;28;20409;-73
2023/05/19 01:43:05;;;;;;;6.53;5.27;;;11.20;99.90;;;;;;5049187;28;21035;-73
2023/05/19 01:45:32;;;;;;;8.33;5.70;;;11.20;99.90;;;;;;5050148;28;20428;-73
2023/05/19 01:48:01;;;;;;;7.73;5.70;;;11.20;99.90;;;;;;5049383;28;20404;-73
2023/05/19 01:50:27;;;;;;;11.90;6.50;;;11.20;99.90;;;;;;5049380;28;20420;-73
2023/05/19 01:52:53;;;;;;;11.33;6.50;;;11.20;99.90;;;;;;5049475;28;20433;-73
2023/05/19 01:55:20;;;;;;;10.30;6.13;;;11.20;99.90;;;;;;5049557;28;20496;-73
2023/05/19 01:58:04;;;;;;;7.00;5.77;;;11.20;99.90;;;;;;5048047;28;20511;-73
2023/05/19 02:01:12;;;;;;;12.53;6.63;;;11.10;99.90;;;;;;5049434;28;20420;-73
2023/05/19 02:03:46;;;;;;;10.97;6.43;;;11.10;99.90;;;;;;5011025;28;20594;-73
2023/05/19 02:06:22;;;;;;;9.80;5.47;;;11.10;99.90;;;;;;5048302;28;20424;-73
2023/05/19 02:08:57;;;;;;;8.20;6.40;;;11.00;99.90;;;;;;5049067;28;20416;-73
2023/05/19 02:11:35;;;;;;;10.10;5.57;;;11.00;99.90;;;;;;5049137;28;20520;-73
2023/05/19 02:14:14;;;;;;;7.03;5.40;;;11.00;99.90;;;;;;5047586;28;20864;-73
2023/05/19 02:16:46;;;;;;;7.77;5.40;;;11.10;99.90;;;;;;5048196;28;20440;-73
2023/05/19 02:19:33;;;;;;;13.37;6.13;;;11.00;99.90;;;;;;5049444;28;20424;-73
2023/05/19 02:21:58;;;;;;;5.77;4.73;;;11.00;99.90;;;;;;5049270;28;20425;-73
2023/05/19 02:24:24;;;;;;;8.10;5.43;;;11.00;99.90;;;;;;5048471;28;20475;-73
2023/05/19 02:26:52;;;;;;;5.77;5.20;;;10.90;99.90;;;;;;5048638;28;20186;-73
2023/05/19 02:29:20;;;;;;;7.10;5.63;;;10.90;99.90;;;;;;5048794;28;20499;-73
2023/05/19 02:31:46;;;;;;;6.00;5.33;;;10.90;99.90;;;;;;5049154;28;20415;-72
2023/05/19 02:34:12;;;;;;;13.10;5.37;;;10.80;99.90;;;;;;5048564;28;20937;-72
2023/05/19 02:36:41;;;;;;;6.97;4.77;;;10.80;99.90;;;;;;5049380;28;20189;-73
2023/05/19 02:39:08;;;;;;;8.00;5.10;;;10.80;99.90;;;;;;5047900;28;20182;-73
2023/05/19 02:41:34;;;;;;;8.83;5.67;;;10.70;99.90;;;;;;5048323;28;20410;-73
2023/05/19 02:43:59;;;;;;;6.57;5.30;;;10.70;99.90;;;;;;5048321;28;20464;-73
2023/05/19 02:46:25;;;;;;;6.57;5.23;;;10.70;99.90;;;;;;5048888;28;20330;-73
2023/05/19 02:48:52;;;;;;;8.30;5.50;;;10.60;99.90;;;;;;5048440;28;20173;-73
2023/05/19 02:51:18;;;;;;;6.67;5.43;;;10.60;99.90;;;;;;5048583;28;20210;-73
2023/05/19 02:53:43;;;;;;;5.73;4.67;;;10.60;99.90;;;;;;5046883;28;20475;-73
2023/05/19 02:56:09;;;;;;;6.77;5.20;;;10.60;99.90;;;;;;5049109;28;20599;-73
2023/05/19 02:58:35;;;;;;;8.17;5.50;;;10.60;99.90;;;;;;5048354;28;20752;-73
2023/05/19 03:01:01;;;;;;;7.00;5.17;;;10.60;99.90;;;;;;5047225;28;20458;-73
2023/05/19 03:03:27;;;;;;;10.57;5.63;;;10.60;99.90;;;;;;5048074;28;20241;-73
2023/05/19 03:05:53;;;;;;;10.30;5.30;;;10.50;99.90;;;;;;5048879;28;20479;-73
2023/05/19 03:08:19;;;;;;;6.97;6.20;;;10.50;99.90;;;;;;5048202;28;20423;-73
2023/05/19 03:10:45;;;;;;;6.17;5.30;;;10.40;99.90;;;;;;5048522;28;20417;-73
2023/05/19 03:13:11;;;;;;;6.87;6.00;;;10.40;99.90;;;;;;5048239;28;20424;-73
2023/05/19 03:15:37;;;;;;;9.97;5.90;;;10.40;99.90;;;;;;5048501;28;20976;-73
2023/05/19 03:18:03;;;;;;;6.23;5.60;;;10.40;99.90;;;;;;5048440;28;20416;-73
2023/05/19 03:20:32;;;;;;;9.43;5.43;;;10.40;99.90;;;;;;5048238;28;20178;-73
2023/05/19 03:22:58;;;;;;;8.27;6.07;;;10.40;99.90;;;;;;5047010;28;20439;-73
2023/05/19 03:25:23;;;;;;;9.50;4.93;;;10.40;99.90;;;;;;5048021;28;20674;-73
2023/05/19 03:27:49;;;;;;;7.53;5.60;;;10.40;99.90;;;;;;5046663;28;20474;-73
2023/05/19 03:30:15;;;;;;;7.23;5.40;;;10.30;99.90;;;;;;5046943;28;20271;-73
2023/05/19 03:32:40;;;;;;;12.70;5.67;;;10.30;99.90;;;;;;5048460;28;20546;-73
2023/05/19 03:35:06;;;;;;;10.33;5.63;;;10.30;99.90;;;;;;5048044;28;20682;-73
2023/05/19 03:37:32;;;;;;;9.10;6.10;;;10.30;99.90;;;;;;5047000;28;20281;-73
2023/05/19 03:39:58;;;;;;;5.63;5.00;;;10.30;99.90;;;;;;5041516;28;20435;-73
2023/05/19 03:42:24;;;;;;;6.80;5.53;;;10.20;99.90;;;;;;5050806;28;20189;-73
2023/05/19 03:44:50;;;;;;;10.53;6.37;;;10.20;99.90;;;;;;5051318;28;21253;-73
2023/05/19 03:47:16;;;;;;;8.10;5.83;;;10.20;99.90;;;;;;5051720;28;20177;-73
2023/05/19 03:49:41;;;;;;;10.47;6.37;;;10.20;99.90;;;;;;5051756;28;20408;-73
2023/05/19 03:52:08;;;;;;;7.27;5.57;;;10.20;99.90;;;;;;5051756;28;20186;-73
2023/05/19 03:54:34;;;;;;;8.60;5.50;;;10.20;99.90;;;;;;5049748;28;20649;-73
2023/05/19 03:57:01;;;;;;;10.70;6.43;;;10.20;99.90;;;;;;5051605;28;20413;-73
2023/05/19 03:59:27;;;;;;;7.87;6.50;;;10.20;99.90;;;;;;5051379;28;20424;-73
2023/05/19 04:01:52;;;;;;;7.37;5.87;;;10.20;99.90;;;;;;5051951;28;20408;-73
2023/05/19 04:04:18;;;;;;;7.90;6.43;;;10.20;99.90;;;;;;5051178;28;20464;-73
2023/05/19 04:06:44;;;;;;;7.80;5.87;;;10.20;99.90;;;;;;5051536;28;20638;-73
2023/05/19 04:09:12;;;;;;;7.83;5.60;;;10.20;99.90;;;;;;5051580;28;20173;-73
2023/05/19 04:11:39;;;;;;;7.57;5.80;;;10.10;99.90;;;;;;5049665;28;20502;-73
2023/05/19 04:14:05;;;;;;;10.97;5.60;;;10.10;99.90;;;;;;5048887;28;20440;-74
2023/05/19 04:16:31;;;;;;;12.63;6.80;;;10.20;99.90;;;;;;5050092;28;20459;-73
2023/05/19 04:18:57;;;;;;;8.67;6.03;;;10.20;99.90;;;;;;5050392;28;20420;-73
2023/05/19 04:21:22;;;;;;;10.63;6.27;;;10.20;99.90;;;;;;5050598;28;20446;-74
2023/05/19 04:23:48;;;;;;;11.87;7.43;;;10.20;99.90;;;;;;5048978;28;20625;-74
2023/05/19 04:26:14;;;;;;;9.37;7.30;;;10.20;99.90;;;;;;5050811;28;20209;-73
2023/05/19 04:28:43;;;;;;;12.80;6.60;;;10.20;99.90;;;;;;5049431;28;20189;-73
2023/05/19 04:31:09;;;;;;;12.00;7.17;;;10.20;99.90;;;;;;5050998;28;20466;-73
2023/05/19 04:33:36;;;;;;;10.53;7.27;;;10.20;99.90;;;;;;5050946;28;20436;-73
2023/05/19 04:36:04;;;;;;;10.33;7.17;;;10.30;99.90;;;;;;5051128;28;20452;-73
2023/05/19 04:38:30;;;;;;;12.10;6.87;;;10.30;99.90;;;;;;5050817;28;20919;-73
2023/05/19 04:40:59;;;;;;;9.83;6.30;;;10.30;99.90;;;;;;5050836;28;20416;-73
2023/05/19 04:43:26;;;;;;;10.00;7.20;;;10.30;99.90;;;;;;5050498;28;20233;-73
2023/05/19 04:45:51;;;;;;;9.30;7.67;;;10.30;99.90;;;;;;5051351;28;20481;-73
2023/05/19 04:48:17;;;;;;;9.37;7.27;;;10.40;99.90;;;;;;5050696;28;20421;-73
2023/05/19 04:50:43;;;;;;;10.87;7.57;;;10.40;99.90;;;;;;5050508;28;20177;-74
2023/05/19 04:53:10;;;;;;;12.03;8.17;;;10.50;99.90;;;;;;5050322;28;20486;-73
2023/05/19 04:55:37;;;;;;;12.40;7.80;;;10.60;99.90;;;;;;5050758;28;20216;-73
2023/05/19 04:58:03;;;;;;;10.73;8.27;;;10.60;99.90;;;;;;5050547;28;20968;-73
2023/05/19 05:00:29;;;;;;;9.40;7.73;;;10.60;99.90;;;;;;5050449;28;20491;-73
2023/05/19 05:02:56;;;;;;;10.20;8.53;;;10.70;99.90;;;;;;5049375;28;20530;-73
2023/05/19 05:05:22;;;;;;;11.23;8.17;;;10.70;99.90;;;;;;5050351;28;20733;-73
2023/05/19 05:07:48;;;;;;;8.60;7.70;;;10.70;99.90;;;;;;5050261;28;20447;-74
2023/05/19 05:10:14;;;;;;;11.23;7.50;;;10.70;99.90;;;;;;5048515;28;20964;-74
2023/05/19 05:12:40;;;;;;;11.60;7.40;;;10.70;99.90;;;;;;5050313;28;20474;-74
2023/05/19 05:15:06;;;;;;;13.27;8.50;;;10.70;99.90;;;;;;5050416;28;20216;-73
2023/05/19 05:17:34;;;;;;;10.77;8.10;;;10.70;99.90;;;;;;5050013;28;20424;-73
2023/05/19 05:20:00;;;;;;;9.50;7.73;;;10.70;99.90;;;;;;5050256;28;20424;-73
2023/05/19 05:22:26;;;;;;;11.17;8.07;;;10.80;99.90;;;;;;5030653;28;20420;-73
2023/05/19 05:24:52;;;;;;;8.90;7.37;;;10.80;99.90;;;;;;5049958;28;20567;-74
2023/05/19 05:27:18;;;;;;;8.77;7.03;;;10.80;99.90;;;;;;5049694;28;20455;-74
2023/05/19 05:29:44;;;;;;;9.90;7.60;;;10.80;99.90;;;;;;5048747;28;20444;-73
2023/05/19 05:32:09;;;;;;;9.00;7.80;;;10.90;99.90;;;;;;5050172;28;20166;-74
2023/05/19 05:34:36;;;;;;;8.80;7.47;;;10.90;99.90;;;;;;5049733;28;20194;-74
2023/05/19 05:37:02;;;;;;;10.77;7.80;;;11.00;99.90;;;;;;5049469;28;20185;-74
2023/05/19 05:39:28;;;;;;;10.13;7.97;;;11.00;99.90;;;;;;5049743;28;20416;-74
2023/05/19 05:41:54;;;;;;;11.47;8.10;;;11.00;99.90;;;;;;5049907;28;20209;-74
2023/05/19 05:44:19;;;;;;;10.70;8.70;;;11.10;99.90;;;;;;5049251;28;20682;-74
2023/05/19 05:46:45;;;;;;;9.83;7.73;;;11.10;99.90;;;;;;5049487;28;20415;-74
2023/05/19 05:49:12;;;;;;;10.83;8.17;;;11.20;99.90;;;;;;5049840;28;20178;-73
2023/05/19 05:51:38;;;;;;;14.87;7.90;;;11.40;99.90;;;;;;5049453;28;20440;-73
2023/05/19 05:54:05;;;;;;;11.60;7.90;;;11.60;99.90;;;;;;5048009;28;20444;-74
2023/05/19 05:56:36;;;;;;;9.40;7.30;;;11.70;99.90;;;;;;5049252;28;20424;-74
2023/05/19 05:59:02;;;;;;;10.40;7.43;;;11.90;99.90;;;;;;5047707;28;20419;-73
2023/05/19 06:01:29;;;;;;;10.80;7.63;;;12.10;99.90;;;;;;5048261;28;20420;-74
2023/05/19 06:03:55;;;;;;;8.80;7.43;;;12.30;99.90;;;;;;5048796;28;20468;-74
2023/05/19 06:06:21;;;;;;;11.13;7.17;;;12.40;99.90;;;;;;5049340;28;20405;-74
2023/05/19 06:08:47;;;;;;;10.73;7.70;;;12.60;99.90;;;;;;5049221;28;20184;-74
2023/05/19 06:11:12;;;;;;;17.97;7.53;;;12.70;99.90;;;;;;5048876;28;20419;-74
2023/05/19 06:13:40;;;;;;;9.70;8.10;;;12.80;99.90;;;;;;5048945;28;20205;-74
2023/05/19 06:16:06;;;;;;;11.80;8.17;;;13.00;99.90;;;;;;5046228;28;20244;-74
2023/05/19 06:18:32;;;;;;;10.00;8.00;;;13.10;99.90;;;;;;5048513;28;20784;-74
2023/05/19 06:20:57;;;;;;;11.80;8.07;;;13.10;99.90;;;;;;5048898;28;20500;-74
2023/05/19 06:23:25;;;;;;;10.43;7.63;;;13.20;99.90;;;;;;5048553;28;20245;-74
2023/05/19 06:25:51;;;;;;;14.77;7.20;;;13.30;99.90;;;;;;5049137;28;20174;-74
2023/05/19 06:28:17;;;;;;;9.03;7.00;;;13.40;99.90;;;;;;5048807;28;20901;-73
2023/05/19 06:30:42;;;;;;;9.53;7.17;;;13.50;99.90;;;;;;5048952;28;20404;-74
2023/05/19 06:33:08;;;;;;;12.27;6.93;;;13.50;99.90;;;;;;5047212;28;20228;-74
2023/05/19 06:35:34;;;;;;;9.23;6.43;;;13.60;99.90;;;;;;5049054;28;20190;-74
2023/05/19 06:38:00;;;;;;;7.60;6.70;;;13.80;99.90;;;;;;5047355;28;20739;-74
2023/05/19 06:40:25;;;;;;;10.00;7.20;;;13.90;99.90;;;;;;5047363;28;20539;-74
2023/05/19 06:42:51;;;;;;;9.20;7.07;;;14.00;99.90;;;;;;5048563;28;20221;-74
2023/05/19 06:45:20;;;;;;;7.50;6.60;;;14.10;99.90;;;;;;5048742;28;20213;-74
2023/05/19 06:47:46;;;;;;;10.07;7.07;;;14.20;99.90;;;;;;5048420;28;20178;-74
2023/05/19 06:50:12;;;;;;;7.10;5.00;;;14.30;99.90;;;;;;5048586;28;21013;-74
2023/05/19 06:52:38;;;;;;;6.37;5.53;;;14.40;99.90;;;;;;5048732;28;20428;-74
2023/05/19 06:55:04;;;;;;;9.03;5.17;;;14.50;99.90;;;;;;5048496;28;20182;-74
2023/05/19 06:57:30;;;;;;;9.20;5.70;;;14.60;99.90;;;;;;5047041;28;20193;-74
2023/05/19 06:59:56;;;;;;;6.50;4.67;;;14.70;99.90;;;;;;5046758;28;20824;-74
2023/05/19 07:02:21;;;;;;;5.83;4.60;;;14.70;99.90;;;;;;5048051;28;20273;-74
2023/05/19 07:04:47;;;;;;;12.90;5.87;;;14.80;99.90;;;;;;5047891;28;20567;-74
2023/05/19 07:07:13;;;;;;;11.00;5.47;;;14.80;99.90;;;;;;5047985;28;20677;-74
2023/05/19 07:09:38;;;;;;;4.93;4.40;;;14.90;99.90;;;;;;5048087;28;20596;-74
2023/05/19 07:12:05;;;;;;;7.13;4.67;;;14.90;99.90;;;;;;5047330;28;20180;-74
2023/05/19 07:14:30;;;;;;;7.13;5.37;;;14.90;99.90;;;;;;5048044;28;20205;-74
2023/05/19 07:16:56;;;;;;;4.77;4.10;;;15.00;99.90;;;;;;5052168;28;20415;-74
2023/05/19 07:19:22;;;;;;;5.70;4.57;;;15.00;99.90;;;;;;5052260;28;20193;-74
2023/05/19 07:21:48;;;;;;;7.60;4.43;;;15.10;99.90;;;;;;5051322;28;20274;-74
2023/05/19 07:24:14;;;;;;;5.53;3.60;;;15.10;99.90;;;;;;5052006;28;20495;-74
2023/05/19 07:26:41;;;;;;;8.47;4.53;;;15.10;99.90;;;;;;5052651;28;20174;-74
2023/05/19 07:29:07;;;;;;;8.30;4.47;;;15.20;99.90;;;;;;5050710;28;20220;-74
2023/05/19 07:31:33;;;;;;;6.10;4.53;;;15.20;99.90;;;;;;5052241;28;20447;-74
2023/05/19 07:33:58;;;;;;;6.00;4.57;;;15.20;99.90;;;;;;5051876;28;20205;-74
2023/05/19 07:36:24;;;;;;;6.50;4.57;;;15.30;99.90;;;;;;5052486;28;20650;-74
2023/05/19 07:38:50;;;;;;;6.73;5.10;;;15.30;99.90;;;;;;5051871;28;20201;-74
2023/05/19 07:41:16;;;;;;;8.03;4.60;;;15.30;99.90;;;;;;5051689;28;20260;-74
2023/05/19 07:43:41;;;;;;;6.43;3.43;;;15.20;99.90;;;;;;5051393;28;20221;-74
2023/05/19 07:46:08;;;;;;;5.50;3.97;;;15.30;99.90;;;;;;5052146;28;20236;-74
2023/05/19 07:48:34;;;;;;;5.77;3.90;;;15.30;99.90;;;;;;5051659;28;20440;-74
2023/05/19 07:51:00;;;;;;;11.30;4.50;;;15.20;99.90;;;;;;5051976;28;20174;-74
2023/05/19 07:53:26;;;;;;;8.67;3.70;;;15.20;99.90;;;;;;5050312;28;20252;-74
2023/05/19 07:55:52;;;;;;;5.33;3.60;;;15.20;99.90;;;;;;5051990;28;20440;-74
2023/05/19 07:58:18;;;;;;;5.70;3.67;;;15.30;99.90;;;;;;5051343;28;20408;-74
2023/05/19 08:00:44;;;;;;;6.13;4.10;;;15.30;99.90;;;;;;5051602;28;20174;-74
2023/05/19 08:03:11;;;;;;;6.50;3.60;;;15.20;99.90;;;;;;5051355;28;20990;-74
2023/05/19 08:05:36;;;;;;;3.33;3.00;;;15.20;99.90;;;;;;5051785;28;20822;-74
2023/05/19 08:08:02;;;;;;;6.87;3.70;;;15.20;99.90;;;;;;5051264;28;20408;-74
2023/05/19 08:10:28;;;;;;;6.83;2.97;;;15.20;99.90;;;;;;5051517;28;20174;-74
2023/05/19 08:12:54;;;;;;;4.47;3.13;;;15.20;99.90;;;;;;5051294;28;20435;-74
2023/05/19 08:15:20;;;;;;;7.40;3.90;;;15.10;99.90;;;;;;5050589;28;20185;-74
2023/05/19 08:17:46;;;;;;;5.30;3.80;;;15.10;99.90;;;;;;5051017;28;20181;-74
2023/05/19 08:20:12;;;;;;;4.53;3.20;;;15.10;99.90;;;;;;5051427;28;20413;-74
2023/05/19 08:22:38;;;;;;;6.00;3.30;;;15.10;99.60;;;;;;5051060;28;20486;-74
2023/05/19 08:25:05;;;;;;;4.70;3.40;;;15.10;99.90;;;;;;5050814;28;20209;-74
2023/05/19 08:27:31;;;;;;;7.03;2.90;;;15.10;99.90;;;;;;5049872;28;20209;-74
2023/05/19 08:29:57;;;;;;;5.47;3.43;;;15.20;99.90;;;;;;5051098;28;20420;-74
2023/05/19 08:32:23;;;;;;;6.60;3.13;;;15.20;99.40;;;;;;5051366;28;20417;-74
2023/05/19 08:34:49;;;;;;;7.30;3.00;;;15.20;98.90;;;;;;5049435;28;20436;-74
2023/05/19 08:37:15;;;;;;;7.83;2.60;;;15.20;99.30;;;;;;5050917;28;20412;-74
2023/05/19 08:39:40;;;;;;;4.27;2.60;;;15.30;99.40;;;;;;5050851;28;20613;-74
2023/05/19 08:42:08;;;;;;;5.77;3.00;;;15.40;99.80;;;;;;5049954;28;20879;-74
2023/05/19 08:44:38;;;;;;;5.30;2.73;;;15.30;98.40;;;;;;5050318;28;20237;-74
2023/05/19 08:47:06;;;;;;;7.30;2.70;;;15.40;98.60;;;;;;5050782;28;20413;-74
2023/05/19 08:49:35;;;;;;;4.10;3.13;;;15.50;98.40;;;;;;5050769;28;20416;-74
2023/05/19 08:52:08;;;;;;;7.60;2.97;;;15.60;98.00;;;;;;5050962;28;20496;-74
2023/05/19 08:54:44;;;;;;;4.70;2.70;;;15.60;97.80;;;;;;5050373;28;20430;-74
2023/05/19 08:57:11;;;;;;;4.93;2.70;;;15.60;97.50;;;;;;5046251;28;20423;-74
2023/05/19 08:59:37;;;;;;;4.60;2.40;;;15.70;97.10;;;;;;5050139;28;20503;-74
2023/05/19 09:02:04;;;;;;;4.47;2.70;;;15.80;96.10;;;;;;5050509;28;20504;-74
2023/05/19 09:04:30;;;;;;;5.73;2.63;;;15.90;96.00;;;;;;5050160;28;20567;-74
2023/05/19 09:06:57;;;;;;;5.00;3.17;;;15.90;96.40;;;;;;5050289;28;20413;-74
2023/05/19 09:09:23;;;;;;;5.77;2.43;;;16.00;96.60;;;;;;5049147;28;20503;-74
2023/05/19 09:11:48;;;;;;;6.23;2.70;;;16.10;95.40;;;;;;5050739;28;20503;-74
2023/05/19 09:14:14;;;;;;;3.90;2.17;;;16.20;95.30;;;;;;5049350;28;20753;-74
2023/05/19 09:16:41;;;;;;;4.60;2.20;;;16.30;94.00;;;;;;5050499;28;20188;-74
2023/05/19 09:19:14;;;;;;;7.20;2.50;;;16.40;93.80;;;;;;5050137;28;20300;-74
2023/05/19 09:21:40;;;;;;;5.27;2.77;;;16.50;93.80;;;;;;5050425;28;20954;-74
2023/05/19 09:24:07;;;;;;;4.00;2.20;;;16.60;93.50;;;;;;5049699;28;20464;-74
2023/05/19 09:26:40;;;;;;;5.50;2.70;;;16.70;93.00;;;;;;5050476;28;20503;-74
2023/05/19 09:29:16;;;;;;;3.10;1.90;;;16.80;94.90;;;;;;5049926;28;20427;-74
2023/05/19 09:31:59;;;;;;;4.77;3.23;;;16.90;93.80;;;;;;5050327;28;20415;-74
2023/05/19 09:34:25;;;;;;;2.47;1.90;;;17.00;93.40;;;;;;5049746;28;20443;-74
2023/05/19 09:36:52;;;;;;;5.33;2.63;;;17.10;93.60;;;;;;5048985;28;20420;-74
2023/05/19 09:39:20;;;;;;;6.93;2.60;;;17.20;92.80;;;;;;5048624;28;20420;-74
2023/05/19 09:41:46;;;;;;;3.60;2.20;;;17.30;93.20;;;;;;5050090;28;20420;-74
2023/05/19 09:44:29;;;;;;;6.90;2.73;;;17.30;92.50;;;;;;5049576;28;20995;-74
2023/05/19 09:46:55;;;;;;;3.97;2.80;;;17.40;93.40;;;;;;5048566;28;20487;-74
2023/05/19 09:49:30;;;;;;;2.90;2.27;;;17.50;92.50;;;;;;5049648;28;20472;-74
2023/05/19 09:51:56;;;;;;;7.97;2.30;;;17.60;92.00;;;;;;5050330;28;20943;-74
2023/05/19 09:54:23;;;;;;;4.90;2.70;;;17.70;91.90;;;;;;5049444;28;20479;-74
2023/05/19 09:57:00;;;;;;;5.00;2.30;;;17.70;90.70;;;;;;5049785;28;20417;-74
2023/05/19 09:59:27;;;;;;;3.40;2.07;;;17.80;91.60;;;;;;5049370;28;20426;-74
2023/05/19 10:01:55;;;;;;;3.83;1.83;;;17.90;90.70;;;;;;5049816;28;20416;-74
2023/05/19 10:04:25;;;;;;;4.40;2.50;;;17.90;90.50;;;;;;5046702;28;20513;-74
2023/05/19 10:06:53;;;;;;;3.93;2.40;;;18.00;91.10;;;;;;5049616;28;20440;-74
2023/05/19 10:09:22;;;;;;;6.80;2.23;;;18.00;91.40;;;;;;5049584;28;20423;-74
2023/05/19 10:11:54;;;;;;;3.77;2.03;;;18.00;90.10;;;;;;5049937;28;20504;-74
2023/05/19 10:14:28;;;;;;;2.23;1.43;;;18.10;91.10;;;;;;5049212;28;20443;-74
2023/05/19 10:16:55;;;;;;;5.10;2.33;;;18.10;89.10;;;;;;5047945;28;21299;-74
2023/05/19 10:19:23;;;;;;;5.43;3.50;;;18.20;89.20;;;;;;5048941;28;20431;-74
2023/05/19 10:21:49;;;;;;;6.73;2.53;;;18.10;88.90;;;;;;5049417;28;20412;-74
2023/05/19 10:24:15;;;;;;;2.77;1.80;;;18.10;87.70;;;;;;5048834;28;20546;-74
2023/05/19 10:26:45;;;;;;;5.10;2.93;;;18.10;88.80;;;;;;5049135;28;20507;-74
2023/05/19 10:29:16;;;;;;;4.93;2.37;;;18.20;84.00;;;;;;5049297;28;20173;-74
2023/05/19 10:31:43;;;;;;;3.83;2.40;;;18.20;90.70;;;;;;5045521;28;20470;-74
2023/05/19 10:34:11;;;;;;;3.60;2.03;;;18.30;90.30;;;;;;5050799;28;20448;-74
2023/05/19 10:36:58;;;;;;;4.97;2.43;;;18.40;90.20;;;;;;5053152;28;20852;-74
2023/05/19 10:39:36;;;;;;;5.37;2.20;;;18.50;90.00;;;;;;5046843;28;20427;-74
2023/05/19 10:42:04;;;;;;;4.47;2.33;;;18.60;90.50;;;;;;5053094;28;20879;-74
2023/05/19 10:45:02;;;;;;;5.30;2.20;;;18.70;90.90;;;;;;5048574;28;20468;-73
2023/05/19 10:47:28;;;;;;;5.77;2.37;;;18.70;89.10;;;;;;5045104;28;20408;-73
2023/05/19 10:49:54;;;;;;;4.63;2.53;;;18.70;85.50;;;;;;5052235;28;20408;-73
2023/05/19 10:52:22;;;;;;;4.33;2.50;;;18.70;88.90;;;;;;5048804;28;20412;-74
2023/05/19 10:54:48;;;;;;;6.60;2.07;;;18.70;85.00;;;;;;5048184;28;20443;-73
2023/05/19 10:57:18;;;;;;;4.50;2.20;;;18.80;89.00;;;;;;5046557;28;20416;-73
2023/05/19 10:59:44;;;;;;;4.00;2.23;;;18.80;88.20;;;;;;5048303;28;20749;-73
2023/05/19 11:02:54;;;;;;;3.03;2.30;;;18.80;85.80;;;;;;5048595;28;20919;-74
2023/05/19 11:05:28;;;;;;;3.30;2.10;;;18.80;86.80;;;;;;5043967;28;20460;-73
2023/05/19 11:07:55;;;;;;;5.10;2.87;;;18.90;87.60;;;;;;5053681;28;20423;-72
2023/05/19 11:10:24;;;;;;;6.10;2.87;;;18.90;86.40;;;;;;5048064;28;20416;-74
2023/05/19 11:12:50;;;;;;;3.60;2.20;;;19.00;87.90;;;;;;5048107;28;20590;-74
2023/05/19 11:15:16;;;;;;;5.10;2.30;;;19.00;89.00;;;;;;5048099;28;20429;-73
2023/05/19 11:17:49;;;;;;;5.77;2.73;;;19.00;90.80;;;;;;5047927;28;20481;-73
2023/05/19 11:20:26;;;;;;;4.37;2.87;;;19.10;87.20;;;;;;5046986;28;20192;-74
2023/05/19 11:23:09;;;;;;;5.93;2.63;;;19.10;87.10;;;;;;5036413;28;20447;-74
2023/05/19 11:25:45;;;;;;;7.20;2.40;;;19.20;85.70;;;;;;5052640;28;20525;-74
2023/05/19 11:28:12;;;;;;;5.00;2.57;;;19.20;87.30;;;;;;5047962;28;21017;-74
2023/05/19 11:30:41;;;;;;;4.03;2.43;;;19.20;84.60;;;;;;5048017;28;20412;-75
2023/05/19 11:33:07;;;;;;;6.37;2.70;;;19.20;87.20;;;;;;5047579;28;20435;-73
2023/05/19 11:35:35;;;;;;;4.47;2.80;;;19.30;90.60;;;;;;5046895;28;20416;-73
2023/05/19 11:38:02;;;;;;;3.47;2.63;;;19.40;88.40;;;;;;5047808;28;20489;-73
2023/05/19 11:40:28;;;;;;;5.33;2.60;;;19.40;88.10;;;;;;5045911;28;20420;-74
2023/05/19 11:42:54;;;;;;;3.30;2.43;;;19.40;85.90;;;;;;5047997;28;20808;-73
2023/05/19 11:45:31;;;;;;;5.33;2.23;;;19.40;88.60;;;;;;5047753;28;20464;-74
2023/05/19 11:47:58;;;;;;;3.23;2.53;;;19.50;86.30;;;;;;5040226;28;20220;-74
2023/05/19 11:50:25;;;;;;;3.90;2.40;;;19.50;87.60;;;;;;5046838;28;20455;-73
2023/05/19 11:52:51;;;;;;;2.87;2.43;;;19.60;87.90;;;;;;5048124;28;20436;-74
2023/05/19 11:55:21;;;;;;;5.13;2.50;;;19.60;86.20;;;;;;5048017;28;20473;-74
2023/05/19 11:57:57;;;;;;;4.50;2.43;;;19.60;86.80;;;;;;5046706;28;20864;-74
2023/05/19 12:00:27;;;;;;;5.77;2.70;;;19.60;87.20;;;;;;5049794;28;20423;-74
2023/05/19 12:02:52;;;;;;;6.47;2.70;;;19.70;89.50;;;;;;5050300;28;20440;-74
2023/05/19 12:05:25;;;;;;;3.70;2.30;;;19.70;87.70;;;;;;5051502;28;20513;-73
2023/05/19 12:07:51;;;;;;;6.03;2.80;;;19.70;87.00;;;;;;5051399;28;20178;-74
2023/05/19 12:10:21;;;;;;;4.27;2.43;;;19.70;86.20;;;;;;5051422;28;20469;-74
2023/05/19 12:12:48;;;;;;;5.73;2.70;;;19.70;86.70;;;;;;5051603;28;20471;-75
2023/05/19 12:15:15;;;;;;;5.17;2.43;;;19.80;87.10;;;;;;5051413;28;20788;-74
2023/05/19 12:17:41;;;;;;;4.47;2.27;;;19.80;87.50;;;;;;5051230;28;20511;-74
2023/05/19 12:20:08;;;;;;;4.57;2.37;;;19.80;85.00;;;;;;5051418;28;20509;-73
2023/05/19 12:22:34;;;;;;;4.33;2.10;;;19.80;81.80;;;;;;5051310;28;20186;-74
2023/05/19 12:25:00;;;;;;;4.90;2.37;;;19.80;85.00;;;;;;5051217;28;20822;-75
2023/05/19 12:27:26;;;;;;;4.97;3.03;;;19.80;88.30;;;;;;5051165;28;20416;-75
2023/05/19 12:29:58;;;;;;;5.07;2.47;;;19.80;86.40;;;;;;5051198;28;20522;-74
2023/05/19 12:32:27;;;;;;;3.47;2.40;;;19.90;88.70;;;;;;5051365;28;20189;-74
2023/05/19 12:34:55;;;;;;;2.87;2.60;;;19.80;85.60;;;;;;5051057;28;20516;-74
2023/05/19 12:37:21;;;;;;;3.50;2.23;;;19.90;84.70;;;;;;5050968;28;20412;-75
2023/05/19 12:39:49;;;;;;;2.57;1.93;;;19.90;80.50;;;;;;5049063;28;21083;-74
2023/05/19 12:42:15;;;;;;;3.13;2.53;;;19.80;84.40;;;;;;5048870;28;20849;-74
2023/05/19 12:44:46;;;;;;;5.03;2.27;;;19.90;86.40;;;;;;5050659;28;21090;-74
2023/05/19 12:47:18;;;;;;;3.37;2.40;;;19.90;84.60;;;;;;5050748;28;20423;-74
2023/05/19 12:50:07;;;;;;;5.13;2.33;;;20.00;88.20;;;;;;5050801;28;20431;-73